sensor_id;sensor_type;location;lat;lon;timestamp;pressure;altitude;pressure_sealevel;temperature;humidity
60099;BME280;62818;49.394;8.686;2023-04-08T00:00:54;100725.41;;;8.74;100.00
60099;BME280;62818;49.394;8.686;2023-04-08T00:01:54;100734.41;;;8.89;100.00
60099;BME280;62818;49.394;8.686;2023-04-08T00:02:55;100735.19;;;8.56;100.00
60099;BME280;62818;49.394;8.686;2023-04-08T00:03:55;100725.28;;;8.58;100.00
60099;BME280;62818;49.394;8.686;2023-04-08T00:04:56;100735.28;;;8.98;100.00
60099;BME280;62818;49.394;8.686;2023-04-08T00:05:57;100742.44;;;8.54;100.00
60099;BME280;62818;49.394;8.686;2023-04-08T00:06:57;100733.59;;;8.46;100.00
60099;BME280;62818;49.394;8.686;2023-04-08T00:07:58;100741.56;;;8.71;100.00
60099;BME280;62818;49.394;8.686;2023-04-08T00:08:58;100740.00;;;8.86;100.00
60099;BME280;62818;49.394;8.686;2023-04-08T00:09:58;100732.03;;;8.78;100.00
60099;BME280;62818;49.394;8.686;2023-04-08T00:10:59;100736.56;;;8.68;100.00
60099;BME280;62818;49.394;8.686;2023-04-08T00:11:59;100728.88;;;8.57;100.00
60099;BME280;62818;49.394;8.686;2023-04-08T00:13:00;100732.03;;;8.78;100.00
60099;BME280;62818;49.394;8.686;2023-04-08T00:14:02;100733.16;;;9.02;100.00
60099;BME280;62818;49.394;8.686;2023-04-08T00:15:03;100740.16;;;8.85;100.00
60099;BME280;62818;49.394;8.686;2023-04-08T00:16:04;100734.78;;;8.51;100.00
60099;BME280;62818;49.394;8.686;2023-04-08T00:17:05;100737.38;;;8.43;100.00
60099;BME280;62818;49.394;8.686;2023-04-08T00:18:06;100741.31;;;8.39;100.00
60099;BME280;62818;49.394;8.686;2023-04-08T00:19:07;100733.53;;;8.38;100.00
60099;BME280;62818;49.394;8.686;2023-04-08T00:20:08;100738.28;;;8.34;100.00
60099;BME280;62818;49.394;8.686;2023-04-08T00:21:09;100736.38;;;8.44;100.00
60099;BME280;62818;49.394;8.686;2023-04-08T00:22:10;100734.72;;;8.61;100.00
60099;BME280;62818;49.394;8.686;2023-04-08T00:23:10;100740.69;;;8.88;100.00
60099;BME280;62818;49.394;8.686;2023-04-08T00:24:11;100739.50;;;8.83;100.00
60099;BME280;62818;49.394;8.686;2023-04-08T00:25:11;100743.31;;;8.88;100.00
60099;BME280;62818;49.394;8.686;2023-04-08T00:26:12;100741.00;;;8.85;100.00
60099;BME280;62818;49.394;8.686;2023-04-08T00:27:12;100742.28;;;8.81;100.00
60099;BME280;62818;49.394;8.686;2023-04-08T00:28:13;100741.34;;;8.65;100.00
60099;BME280;62818;49.394;8.686;2023-04-08T00:29:13;100743.00;;;8.91;100.00
60099;BME280;62818;49.394;8.686;2023-04-08T00:30:14;100739.84;;;8.62;100.00
60099;BME280;62818;49.394;8.686;2023-04-08T00:31:15;100735.84;;;8.58;100.00
60099;BME280;62818;49.394;8.686;2023-04-08T00:32:16;100737.28;;;8.53;100.00
60099;BME280;62818;49.394;8.686;2023-04-08T00:33:16;100741.19;;;8.66;100.00
60099;BME280;62818;49.394;8.686;2023-04-08T00:34:16;100741.97;;;8.59;100.00
60099;BME280;62818;49.394;8.686;2023-04-08T00:35:17;100745.78;;;8.64;100.00
60099;BME280;62818;49.394;8.686;2023-04-08T00:36:17;100741.56;;;8.71;100.00
60099;BME280;62818;49.394;8.686;2023-04-08T00:37:18;100741.69;;;8.87;100.00
60099;BME280;62818;49.394;8.686;2023-04-08T00:38:18;100749.44;;;8.63;100.00
60099;BME280;62818;49.394;8.686;2023-04-08T00:39:19;100740.31;;;8.83;100.00
60099;BME280;62818;49.394;8.686;2023-04-08T00:40:20;100745.50;;;8.67;100.00
60099;BME280;62818;49.394;8.686;2023-04-08T00:41:20;100744.56;;;8.76;100.00
60099;BME280;62818;49.394;8.686;2023-04-08T00:42:21;100742.19;;;8.65;100.00
60099;BME280;62818;49.394;8.686;2023-04-08T00:43:21;100739.66;;;8.64;100.00
60099;BME280;62818;49.394;8.686;2023-04-08T00:44:22;100742.59;;;8.78;100.00
60099;BME280;62818;49.394;8.686;2023-04-08T00:45:22;100741.03;;;8.93;100.00
60099;BME280;62818;49.394;8.686;2023-04-08T00:46:23;100748.81;;;8.69;100.00
60099;BME280;62818;49.394;8.686;2023-04-08T00:47:23;100743.19;;;8.47;100.00
60099;BME280;62818;49.394;8.686;2023-04-08T00:48:24;100741.75;;;8.52;100.00
60099;BME280;62818;49.394;8.686;2023-04-08T00:49:25;100739.25;;;8.51;100.00
60099;BME280;62818;49.394;8.686;2023-04-08T00:50:26;100744.41;;;8.52;100.00
60099;BME280;62818;49.394;8.686;2023-04-08T00:51:28;100745.91;;;8.80;100.00
60099;BME280;62818;49.394;8.686;2023-04-08T00:52:30;100747.94;;;8.86;100.00
60099;BME280;62818;49.394;8.686;2023-04-08T00:53:30;100744.66;;;8.92;100.00
60099;BME280;62818;49.394;8.686;2023-04-08T00:54:31;100745.97;;;8.88;100.00
60099;BME280;62818;49.394;8.686;2023-04-08T00:55:32;100742.72;;;8.77;100.00
60099;BME280;62818;49.394;8.686;2023-04-08T00:56:33;100751.06;;;8.90;100.00
60099;BME280;62818;49.394;8.686;2023-04-08T00:57:35;100747.25;;;8.84;100.00
60099;BME280;62818;49.394;8.686;2023-04-08T00:58:37;100741.19;;;8.66;100.00
60099;BME280;62818;49.394;8.686;2023-04-08T00:59:39;100745.78;;;8.64;100.00
60099;BME280;62818;49.394;8.686;2023-04-08T01:00:43;100747.47;;;8.65;100.00
60099;BME280;62818;49.394;8.686;2023-04-08T01:03:11;100743.19;;;8.72;100.00
60099;BME280;62818;49.394;8.686;2023-04-08T01:04:32;100745.88;;;8.98;100.00
60099;BME280;62818;49.394;8.686;2023-04-08T01:07:14;100751.88;;;8.82;100.00
60099;BME280;62818;49.394;8.686;2023-04-08T01:08:19;100747.13;;;8.68;100.00
60099;BME280;62818;49.394;8.686;2023-04-08T01:09:27;100743.41;;;8.53;100.00
60099;BME280;62818;49.394;8.686;2023-04-08T01:10:33;100749.31;;;8.47;100.00
60099;BME280;62818;49.394;8.686;2023-04-08T01:11:41;100747.34;;;8.49;100.00
60099;BME280;62818;49.394;8.686;2023-04-08T01:12:49;100742.88;;;8.50;100.00
60099;BME280;62818;49.394;8.686;2023-04-08T01:13:55;100746.72;;;8.55;100.00
60099;BME280;62818;49.394;8.686;2023-04-08T01:15:05;100741.50;;;8.63;100.00
60099;BME280;62818;49.394;8.686;2023-04-08T01:16:09;100744.97;;;8.64;100.00
60099;BME280;62818;49.394;8.686;2023-04-08T01:17:12;100744.66;;;8.67;100.00
60099;BME280;62818;49.394;8.686;2023-04-08T01:18:13;100743.72;;;8.50;100.00
60099;BME280;62818;49.394;8.686;2023-04-08T01:19:38;100742.97;;;8.40;100.00
60099;BME280;62818;49.394;8.686;2023-04-08T01:20:41;100743.09;;;8.82;100.00
60099;BME280;62818;49.394;8.686;2023-04-08T01:21:43;100745.69;;;9.00;100.00
60099;BME280;62818;49.394;8.686;2023-04-08T01:23:05;100742.06;;;8.49;100.00
60099;BME280;62818;49.394;8.686;2023-04-08T01:24:17;100741.09;;;8.33;100.00
60099;BME280;62818;49.394;8.686;2023-04-08T01:25:29;100746.22;;;8.34;100.00
60099;BME280;62818;49.394;8.686;2023-04-08T01:26:31;100746.22;;;8.77;100.00
60099;BME280;62818;49.394;8.686;2023-04-08T01:27:32;100747.66;;;8.98;100.00
60099;BME280;62818;49.394;8.686;2023-04-08T01:28:35;100744.75;;;9.09;100.00
60099;BME280;62818;49.394;8.686;2023-04-08T01:29:38;100749.22;;;9.08;100.00
60099;BME280;62818;49.394;8.686;2023-04-08T01:30:42;100746.63;;;8.65;100.00
60099;BME280;62818;49.394;8.686;2023-04-08T01:31:45;100739.34;;;8.41;100.00
60099;BME280;62818;49.394;8.686;2023-04-08T01:32:48;100741.38;;;8.30;100.00
60099;BME280;62818;49.394;8.686;2023-04-08T01:33:51;100745.75;;;8.21;100.00
60099;BME280;62818;49.394;8.686;2023-04-08T01:34:54;100738.25;;;8.69;100.00
60099;BME280;62818;49.394;8.686;2023-04-08T01:35:57;100743.16;;;8.64;100.00
60099;BME280;62818;49.394;8.686;2023-04-08T01:37:01;100750.81;;;8.32;100.00
60099;BME280;62818;49.394;8.686;2023-04-08T01:38:05;100744.44;;;8.25;100.00
60099;BME280;62818;49.394;8.686;2023-04-08T01:39:08;100740.25;;;8.32;100.00
60099;BME280;62818;49.394;8.686;2023-04-08T01:40:10;100742.78;;;8.59;100.00
60099;BME280;62818;49.394;8.686;2023-04-08T01:41:11;100735.84;;;8.58;100.00
60099;BME280;62818;49.394;8.686;2023-04-08T01:42:13;100734.59;;;8.70;100.00
60099;BME280;62818;49.394;8.686;2023-04-08T01:43:16;100742.91;;;8.75;100.00
60099;BME280;62818;49.394;8.686;2023-04-08T01:44:18;100739.38;;;8.67;100.00
60099;BME280;62818;49.394;8.686;2023-04-08T01:45:22;100744.31;;;8.44;100.00
60099;BME280;62818;49.394;8.686;2023-04-08T01:46:23;100742.34;;;8.46;100.00
60099;BME280;62818;49.394;8.686;2023-04-08T01:47:26;100742.72;;;8.51;100.00
60099;BME280;62818;49.394;8.686;2023-04-08T01:48:28;100739.47;;;8.57;100.00
60099;BME280;62818;49.394;8.686;2023-04-08T01:49:30;100742.69;;;8.26;100.00
60099;BME280;62818;49.394;8.686;2023-04-08T01:50:31;100738.44;;;8.15;100.00
60099;BME280;62818;49.394;8.686;2023-04-08T01:51:33;100736.38;;;8.09;100.00
60099;BME280;62818;49.394;8.686;2023-04-08T01:52:37;100732.94;;;8.44;100.00
60099;BME280;62818;49.394;8.686;2023-04-08T01:53:40;100739.97;;;8.78;100.00
60099;BME280;62818;49.394;8.686;2023-04-08T01:54:43;100737.31;;;8.78;100.00
60099;BME280;62818;49.394;8.686;2023-04-08T01:55:44;100744.34;;;8.95;100.00
60099;BME280;62818;49.394;8.686;2023-04-08T01:56:46;100733.44;;;8.47;100.00
60099;BME280;62818;49.394;8.686;2023-04-08T01:57:49;100735.28;;;8.29;100.00
60099;BME280;62818;49.394;8.686;2023-04-08T01:58:53;100734.06;;;8.41;100.00
60099;BME280;62818;49.394;8.686;2023-04-08T02:00:01;100741.63;;;8.62;100.00
60099;BME280;62818;49.394;8.686;2023-04-08T02:01:09;100740.38;;;8.48;100.00
60099;BME280;62818;49.394;8.686;2023-04-08T02:02:13;100734.19;;;8.57;100.00
60099;BME280;62818;49.394;8.686;2023-04-08T02:03:17;100738.94;;;8.54;100.00
60099;BME280;62818;49.394;8.686;2023-04-08T02:04:19;100734.50;;;8.54;100.00
60099;BME280;62818;49.394;8.686;2023-04-08T02:05:20;100738.16;;;8.79;100.00
60099;BME280;62818;49.394;8.686;2023-04-08T02:06:21;100747.06;;;8.78;100.00
60099;BME280;62818;49.394;8.686;2023-04-08T02:07:22;100737.66;;;8.58;100.00
60099;BME280;62818;49.394;8.686;2023-04-08T02:08:23;100737.19;;;8.62;100.00
60099;BME280;62818;49.394;8.686;2023-04-08T02:09:24;100737.81;;;8.82;100.00
60099;BME280;62818;49.394;8.686;2023-04-08T02:10:24;100739.97;;;8.78;100.00
60099;BME280;62818;49.394;8.686;2023-04-08T02:11:25;100743.78;;;8.84;100.00
60099;BME280;62818;49.394;8.686;2023-04-08T02:12:26;100745.50;;;8.93;100.00
60099;BME280;62818;49.394;8.686;2023-04-08T02:13:28;100749.38;;;9.07;100.00
60099;BME280;62818;49.394;8.686;2023-04-08T02:14:30;100752.63;;;8.75;100.00
60099;BME280;62818;49.394;8.686;2023-04-08T02:15:33;100744.16;;;8.63;100.00
60099;BME280;62818;49.394;8.686;2023-04-08T02:16:53;100742.00;;;8.41;100.00
60099;BME280;62818;49.394;8.686;2023-04-08T02:18:12;100749.50;;;8.54;100.00
60099;BME280;62818;49.394;8.686;2023-04-08T02:19:28;100742.66;;;8.43;100.00
60099;BME280;62818;49.394;8.686;2023-04-08T02:20:37;100741.66;;;8.44;100.00
60099;BME280;62818;49.394;8.686;2023-04-08T02:21:46;100745.84;;;8.29;100.00
60099;BME280;62818;49.394;8.686;2023-04-08T02:23:10;100739.00;;;8.62;100.00
60099;BME280;62818;49.394;8.686;2023-04-08T02:24:16;100744.38;;;8.70;100.00
60099;BME280;62818;49.394;8.686;2023-04-08T02:25:22;100740.63;;;8.37;100.00
60099;BME280;62818;49.394;8.686;2023-04-08T02:26:24;100744.19;;;8.28;100.00
60099;BME280;62818;49.394;8.686;2023-04-08T02:27:27;100741.75;;;8.17;100.00
60099;BME280;62818;49.394;8.686;2023-04-08T02:28:31;100741.44;;;8.20;100.00
60099;BME280;62818;49.394;8.686;2023-04-08T02:29:35;100742.22;;;8.30;100.00
60099;BME280;62818;49.394;8.686;2023-04-08T02:30:41;100739.03;;;8.44;100.00
60099;BME280;62818;49.394;8.686;2023-04-08T02:31:45;100739.38;;;8.67;100.00
60099;BME280;62818;49.394;8.686;2023-04-08T02:32:48;100737.66;;;8.58;100.00
60099;BME280;62818;49.394;8.686;2023-04-08T02:33:51;100745.50;;;8.67;100.00
60099;BME280;62818;49.394;8.686;2023-04-08T02:34:52;100737.72;;;8.48;100.00
60099;BME280;62818;49.394;8.686;2023-04-08T02:35:55;100743.56;;;8.34;100.00
60099;BME280;62818;49.394;8.686;2023-04-08T02:36:57;100744.94;;;8.38;100.00
60099;BME280;62818;49.394;8.686;2023-04-08T02:37:58;100743.19;;;8.29;100.00
60099;BME280;62818;49.394;8.686;2023-04-08T02:38:58;100742.75;;;8.34;100.00
60099;BME280;62818;49.394;8.686;2023-04-08T02:39:59;100749.91;;;8.41;100.00
60099;BME280;62818;49.394;8.686;2023-04-08T02:41:00;100736.09;;;8.30;100.00
60099;BME280;62818;49.394;8.686;2023-04-08T02:42:00;100748.53;;;8.37;100.00
60099;BME280;62818;49.394;8.686;2023-04-08T02:43:01;100747.34;;;8.49;100.00
60099;BME280;62818;49.394;8.686;2023-04-08T02:44:01;100752.63;;;8.49;100.00
60099;BME280;62818;49.394;8.686;2023-04-08T02:45:02;100747.03;;;8.52;100.00
60099;BME280;62818;49.394;8.686;2023-04-08T02:46:03;100744.00;;;8.47;100.00
60099;BME280;62818;49.394;8.686;2023-04-08T02:47:03;100744.31;;;8.44;100.00
60099;BME280;62818;49.394;8.686;2023-04-08T02:48:04;100747.72;;;8.54;100.00
60099;BME280;62818;49.394;8.686;2023-04-08T02:49:05;100738.28;;;8.52;100.00
60099;BME280;62818;49.394;8.686;2023-04-08T02:50:06;100738.81;;;8.38;100.00
60099;BME280;62818;49.394;8.686;2023-04-08T02:51:06;100738.97;;;8.36;100.00
60099;BME280;62818;49.394;8.686;2023-04-08T02:52:07;100744.19;;;8.28;100.00
60099;BME280;62818;49.394;8.686;2023-04-08T02:53:08;100741.69;;;8.27;100.00
60099;BME280;62818;49.394;8.686;2023-04-08T02:54:08;100744.88;;;8.30;100.00
60099;BME280;62818;49.394;8.686;2023-04-08T02:55:09;100744.44;;;8.25;100.00
60099;BME280;62818;49.394;8.686;2023-04-08T02:56:11;100739.47;;;8.22;100.00
60099;BME280;62818;49.394;8.686;2023-04-08T02:57:11;100740.75;;;8.18;100.00
60099;BME280;62818;49.394;8.686;2023-04-08T02:58:12;100742.56;;;8.17;100.00
60099;BME280;62818;49.394;8.686;2023-04-08T02:59:12;100741.81;;;8.25;100.00
60099;BME280;62818;49.394;8.686;2023-04-08T03:00:13;100741.09;;;8.33;100.00
60099;BME280;62818;49.394;8.686;2023-04-08T03:01:15;100741.81;;;8.25;100.00
60099;BME280;62818;49.394;8.686;2023-04-08T03:02:16;100738.28;;;8.34;100.00
60099;BME280;62818;49.394;8.686;2023-04-08T03:03:17;100741.09;;;8.33;100.00
60099;BME280;62818;49.394;8.686;2023-04-08T03:04:17;100745.19;;;8.17;100.00
60099;BME280;62818;49.394;8.686;2023-04-08T03:05:18;100737.47;;;8.34;100.00
60099;BME280;62818;49.394;8.686;2023-04-08T03:06:18;100743.09;;;8.21;100.00
60099;BME280;62818;49.394;8.686;2023-04-08T03:07:19;100742.34;;;8.29;100.00
60099;BME280;62818;49.394;8.686;2023-04-08T03:08:19;100744.75;;;8.22;100.00
60099;BME280;62818;49.394;8.686;2023-04-08T03:09:20;100748.38;;;8.21;100.00
60099;BME280;62818;49.394;8.686;2023-04-08T03:10:21;100745.13;;;8.09;100.00
60099;BME280;62818;49.394;8.686;2023-04-08T03:11:21;100740.31;;;8.05;100.00
60099;BME280;62818;49.394;8.686;2023-04-08T03:12:22;100748.78;;;8.08;100.00
60099;BME280;62818;49.394;8.686;2023-04-08T03:13:22;100746.72;;;8.20;100.00
60099;BME280;62818;49.394;8.686;2023-04-08T03:14:23;100745.06;;;8.19;100.00
60099;BME280;62818;49.394;8.686;2023-04-08T03:15:23;100750.25;;;8.11;100.00
60099;BME280;62818;49.394;8.686;2023-04-08T03:16:24;100754.41;;;7.96;100.00
60099;BME280;62818;49.394;8.686;2023-04-08T03:17:24;100756.50;;;7.75;100.00
60099;BME280;62818;49.394;8.686;2023-04-08T03:18:25;100753.94;;;7.83;100.00
60099;BME280;62818;49.394;8.686;2023-04-08T03:19:26;100757.59;;;7.72;100.00
60099;BME280;62818;49.394;8.686;2023-04-08T03:20:26;100751.88;;;7.77;100.00
60099;BME280;62818;49.394;8.686;2023-04-08T03:21:26;100751.69;;;7.88;100.00
60099;BME280;62818;49.394;8.686;2023-04-08T03:22:27;100743.84;;;7.96;100.00
60099;BME280;62818;49.394;8.686;2023-04-08T03:23:28;100751.03;;;8.03;100.00
60099;BME280;62818;49.394;8.686;2023-04-08T03:24:28;100749.44;;;7.93;100.00
60099;BME280;62818;49.394;8.686;2023-04-08T03:25:28;100751.00;;;7.59;100.00
60099;BME280;62818;49.394;8.686;2023-04-08T03:26:30;100751.00;;;7.59;100.00
60099;BME280;62818;49.394;8.686;2023-04-08T03:27:31;100754.06;;;7.64;100.00
60099;BME280;62818;49.394;8.686;2023-04-08T03:28:31;100750.19;;;7.58;100.00
60099;BME280;62818;49.394;8.686;2023-04-08T03:29:32;100756.00;;;7.62;100.00
60099;BME280;62818;49.394;8.686;2023-04-08T03:30:32;100743.53;;;7.54;100.00
60099;BME280;62818;49.394;8.686;2023-04-08T03:31:32;100757.09;;;7.69;100.00
60099;BME280;62818;49.394;8.686;2023-04-08T03:32:33;100747.88;;;7.73;100.00
60099;BME280;62818;49.394;8.686;2023-04-08T03:33:33;100751.97;;;7.85;100.00
60099;BME280;62818;49.394;8.686;2023-04-08T03:34:34;100747.59;;;7.93;100.00
60099;BME280;62818;49.394;8.686;2023-04-08T03:35:35;100750.78;;;7.97;100.00
60099;BME280;62818;49.394;8.686;2023-04-08T03:36:37;100758.03;;;7.95;100.00
60099;BME280;62818;49.394;8.686;2023-04-08T03:37:38;100753.66;;;8.03;100.00
60099;BME280;62818;49.394;8.686;2023-04-08T03:38:38;100747.16;;;7.98;100.00
60099;BME280;62818;49.394;8.686;2023-04-08T03:39:39;100750.19;;;8.03;100.00
60099;BME280;62818;49.394;8.686;2023-04-08T03:40:39;100754.72;;;7.93;100.00
60099;BME280;62818;49.394;8.686;2023-04-08T03:41:40;100750.25;;;7.93;100.00
60099;BME280;62818;49.394;8.686;2023-04-08T03:42:40;100754.56;;;7.94;100.00
60099;BME280;62818;49.394;8.686;2023-04-08T03:43:41;100751.53;;;8.07;100.00
60099;BME280;62818;49.394;8.686;2023-04-08T03:44:41;100748.22;;;8.05;100.00
60099;BME280;62818;49.394;8.686;2023-04-08T03:45:42;100749.91;;;8.06;100.00
60099;BME280;62818;49.394;8.686;2023-04-08T03:46:42;100760.28;;;7.63;100.00
60099;BME280;62818;49.394;8.686;2023-04-08T03:47:43;100753.00;;;7.47;100.00
60099;BME280;62818;49.394;8.686;2023-04-08T03:48:44;100755.09;;;7.53;100.00
60099;BME280;62818;49.394;8.686;2023-04-08T03:49:44;100749.78;;;7.80;100.00
60099;BME280;62818;49.394;8.686;2023-04-08T03:50:44;100754.03;;;7.91;100.00
60099;BME280;62818;49.394;8.686;2023-04-08T03:51:45;100758.38;;;8.00;100.00
60099;BME280;62818;49.394;8.686;2023-04-08T03:52:45;100757.00;;;7.78;100.00
60099;BME280;62818;49.394;8.686;2023-04-08T03:53:46;100761.22;;;7.71;100.00
60099;BME280;62818;49.394;8.686;2023-04-08T03:54:48;100760.97;;;7.65;100.00
60099;BME280;62818;49.394;8.686;2023-04-08T03:55:49;100762.38;;;7.69;100.00
60099;BME280;62818;49.394;8.686;2023-04-08T03:56:52;100761.69;;;7.84;100.00
60099;BME280;62818;49.394;8.686;2023-04-08T03:57:52;100763.41;;;7.76;100.00
60099;BME280;62818;49.394;8.686;2023-04-08T03:58:53;100769.75;;;7.83;100.00
60099;BME280;62818;49.394;8.686;2023-04-08T03:59:53;100761.56;;;7.59;100.00
60099;BME280;62818;49.394;8.686;2023-04-08T04:00:54;100763.56;;;7.47;100.00
60099;BME280;62818;49.394;8.686;2023-04-08T04:01:54;100762.00;;;7.54;100.00
60099;BME280;62818;49.394;8.686;2023-04-08T04:02:55;100761.41;;;7.60;100.00
60099;BME280;62818;49.394;8.686;2023-04-08T04:03:55;100757.97;;;7.60;100.00
60099;BME280;62818;49.394;8.686;2023-04-08T04:04:56;100762.59;;;7.75;100.00
60099;BME280;62818;49.394;8.686;2023-04-08T04:05:56;100762.25;;;7.61;100.00
60099;BME280;62818;49.394;8.686;2023-04-08T04:06:57;100765.19;;;7.58;100.00
60099;BME280;62818;49.394;8.686;2023-04-08T04:07:57;100763.47;;;7.39;100.00
60099;BME280;62818;49.394;8.686;2023-04-08T04:08:58;100764.41;;;7.47;100.00
60099;BME280;62818;49.394;8.686;2023-04-08T04:09:58;100763.53;;;7.57;100.00
60099;BME280;62818;49.394;8.686;2023-04-08T04:10:59;100767.00;;;7.57;100.00
60099;BME280;62818;49.394;8.686;2023-04-08T04:11:59;100761.81;;;7.65;100.00
60099;BME280;62818;49.394;8.686;2023-04-08T04:13:00;100771.31;;;7.76;100.00
60099;BME280;62818;49.394;8.686;2023-04-08T04:14:01;100763.34;;;7.85;100.00
60099;BME280;62818;49.394;8.686;2023-04-08T04:15:02;100771.75;;;7.98;100.00
60099;BME280;62818;49.394;8.686;2023-04-08T04:16:03;100774.06;;;7.84;100.00
60099;BME280;62818;49.394;8.686;2023-04-08T04:17:04;100774.03;;;7.66;100.00
60099;BME280;62818;49.394;8.686;2023-04-08T04:18:05;100770.75;;;7.55;100.00
60099;BME280;62818;49.394;8.686;2023-04-08T04:19:06;100778.31;;;7.67;100.00
60099;BME280;62818;49.394;8.686;2023-04-08T04:20:07;100771.91;;;7.70;100.00
60099;BME280;62818;49.394;8.686;2023-04-08T04:21:07;100771.84;;;7.62;100.00
60099;BME280;62818;49.394;8.686;2023-04-08T04:22:08;100777.19;;;7.70;100.00
60099;BME280;62818;49.394;8.686;2023-04-08T04:23:09;100770.38;;;7.77;100.00
60099;BME280;62818;49.394;8.686;2023-04-08T04:24:10;100782.28;;;7.81;100.00
60099;BME280;62818;49.394;8.686;2023-04-08T04:25:10;100773.88;;;7.95;100.00
60099;BME280;62818;49.394;8.686;2023-04-08T04:26:11;100774.91;;;8.02;100.00
60099;BME280;62818;49.394;8.686;2023-04-08T04:27:11;100768.38;;;8.06;100.00
60099;BME280;62818;49.394;8.686;2023-04-08T04:28:12;100777.31;;;7.95;100.00
60099;BME280;62818;49.394;8.686;2023-04-08T04:29:12;100771.91;;;7.97;100.00
60099;BME280;62818;49.394;8.686;2023-04-08T04:30:13;100773.91;;;7.85;100.00
60099;BME280;62818;49.394;8.686;2023-04-08T04:31:22;100771.66;;;7.90;100.00
60099;BME280;62818;49.394;8.686;2023-04-08T04:32:26;100768.16;;;8.17;100.00
60099;BME280;62818;49.394;8.686;2023-04-08T04:33:27;100768.44;;;8.14;100.00
60099;BME280;62818;49.394;8.686;2023-04-08T04:34:27;100772.03;;;8.13;100.00
60099;BME280;62818;49.394;8.686;2023-04-08T04:35:28;100771.16;;;8.22;100.00
60099;BME280;62818;49.394;8.686;2023-04-08T04:36:28;100782.78;;;7.84;100.00
60099;BME280;62818;49.394;8.686;2023-04-08T04:37:29;100779.75;;;7.62;100.00
60099;BME280;62818;49.394;8.686;2023-04-08T04:38:29;100776.56;;;7.58;100.00
60099;BME280;62818;49.394;8.686;2023-04-08T04:39:30;100777.00;;;7.54;100.00
60099;BME280;62818;49.394;8.686;2023-04-08T04:40:30;100776.91;;;7.45;100.00
60099;BME280;62818;49.394;8.686;2023-04-08T04:41:31;100770.56;;;7.66;100.00
60099;BME280;62818;49.394;8.686;2023-04-08T04:42:31;100785.94;;;7.97;100.00
60099;BME280;62818;49.394;8.686;2023-04-08T04:43:32;100785.72;;;7.91;100.00
60099;BME280;62818;49.394;8.686;2023-04-08T04:44:32;100781.00;;;7.85;100.00
60099;BME280;62818;49.394;8.686;2023-04-08T04:45:33;100773.72;;;8.14;100.00
60099;BME280;62818;49.394;8.686;2023-04-08T04:46:33;100780.19;;;8.02;100.00
60099;BME280;62818;49.394;8.686;2023-04-08T04:47:34;100787.34;;;7.92;100.00
60099;BME280;62818;49.394;8.686;2023-04-08T04:48:35;100782.00;;;7.84;100.00
60099;BME280;62818;49.394;8.686;2023-04-08T04:49:35;100779.19;;;7.85;100.00
60099;BME280;62818;49.394;8.686;2023-04-08T04:50:36;100783.22;;;8.07;100.00
60099;BME280;62818;49.394;8.686;2023-04-08T04:51:36;100787.16;;;7.76;100.00
60099;BME280;62818;49.394;8.686;2023-04-08T04:52:36;100785.72;;;7.64;100.00
60099;BME280;62818;49.394;8.686;2023-04-08T04:53:37;100787.31;;;7.74;100.00
60099;BME280;62818;49.394;8.686;2023-04-08T04:54:37;100788.63;;;7.88;100.00
60099;BME280;62818;49.394;8.686;2023-04-08T04:55:38;100787.34;;;7.65;100.00
60099;BME280;62818;49.394;8.686;2023-04-08T04:56:38;100794.03;;;7.69;100.00
60099;BME280;62818;49.394;8.686;2023-04-08T04:57:39;100794.50;;;7.82;100.00
60099;BME280;62818;49.394;8.686;2023-04-08T04:58:40;100788.91;;;7.85;100.00
60099;BME280;62818;49.394;8.686;2023-04-08T04:59:41;100792.53;;;7.84;100.00
60099;BME280;62818;49.394;8.686;2023-04-08T05:00:41;100791.28;;;8.05;100.00
60099;BME280;62818;49.394;8.686;2023-04-08T05:01:42;100782.72;;;8.21;100.00
60099;BME280;62818;49.394;8.686;2023-04-08T05:02:42;100787.13;;;8.30;100.00
60099;BME280;62818;49.394;8.686;2023-04-08T05:03:43;100798.09;;;8.08;100.00
60099;BME280;62818;49.394;8.686;2023-04-08T05:04:43;100792.84;;;7.81;100.00
60099;BME280;62818;49.394;8.686;2023-04-08T05:05:44;100795.66;;;7.70;100.00
60099;BME280;62818;49.394;8.686;2023-04-08T05:06:44;100793.31;;;7.67;100.00
60099;BME280;62818;49.394;8.686;2023-04-08T05:07:45;100793.66;;;7.81;100.00
60099;BME280;62818;49.394;8.686;2023-04-08T05:08:45;100793.03;;;7.97;100.00
60099;BME280;62818;49.394;8.686;2023-04-08T05:09:46;100794.97;;;7.95;100.00
60099;BME280;62818;49.394;8.686;2023-04-08T05:10:46;100788.41;;;7.99;100.00
60099;BME280;62818;49.394;8.686;2023-04-08T05:11:49;100797.03;;;7.74;100.00
60099;BME280;62818;49.394;8.686;2023-04-08T05:12:49;100788.91;;;7.85;100.00
60099;BME280;62818;49.394;8.686;2023-04-08T05:13:50;100796.09;;;7.92;100.00
60099;BME280;62818;49.394;8.686;2023-04-08T05:14:50;100798.63;;;8.11;100.00
60099;BME280;62818;49.394;8.686;2023-04-08T05:15:51;100794.91;;;8.22;100.00
60099;BME280;62818;49.394;8.686;2023-04-08T05:16:51;100793.75;;;8.34;100.00
60099;BME280;62818;49.394;8.686;2023-04-08T05:17:51;100794.16;;;8.12;100.00
60099;BME280;62818;49.394;8.686;2023-04-08T05:18:52;100802.50;;;7.90;100.00
60099;BME280;62818;49.394;8.686;2023-04-08T05:19:52;100789.56;;;8.14;100.00
60099;BME280;62818;49.394;8.686;2023-04-08T05:20:53;100795.97;;;8.11;100.00
60099;BME280;62818;49.394;8.686;2023-04-08T05:21:53;100794.38;;;8.01;100.00
60099;BME280;62818;49.394;8.686;2023-04-08T05:22:54;100797.69;;;8.03;100.00
60099;BME280;62818;49.394;8.686;2023-04-08T05:23:55;100799.38;;;8.04;100.00
60099;BME280;62818;49.394;8.686;2023-04-08T05:24:55;100801.47;;;8.18;100.00
60099;BME280;62818;49.394;8.686;2023-04-08T05:25:56;100800.69;;;8.35;100.00
60099;BME280;62818;49.394;8.686;2023-04-08T05:26:56;100802.28;;;8.28;100.00